createdAt,value
2019-05-01T00:00:16.344Z,56.31
2019-05-01T00:01:08.796Z,56.31
2019-05-01T00:02:05.782Z,56.08
2019-05-01T00:03:03.491Z,55.78
2019-05-01T00:04:09.320Z,55.98
2019-05-01T00:05:03.605Z,55.98
2019-05-01T00:05:42.027Z,55.71
2019-05-01T00:06:22.282Z,55.72
2019-05-01T00:07:00.052Z,55.75
2019-05-01T00:07:36.719Z,55.92
2019-05-01T00:08:12.667Z,56.04
2019-05-01T00:08:48.465Z,56.04
2019-05-01T00:09:24.941Z,56.16
2019-05-01T00:10:01.057Z,55.93
2019-05-01T00:10:37.063Z,55.99
2019-05-01T00:11:12.523Z,56.16
2019-05-01T00:11:48.150Z,56.16
2019-05-01T00:12:23.694Z,56.08
2019-05-01T00:12:59.572Z,56.05
2019-05-01T00:13:35.389Z,55.95
2019-05-01T00:14:11.880Z,56.16
2019-05-01T00:14:47.774Z,56.16
2019-05-01T00:15:25.843Z,56.11
2019-05-01T00:16:01.340Z,56.23
2019-05-01T00:16:36.810Z,56.29
2019-05-01T00:17:13.034Z,56.69
2019-05-01T00:17:48.805Z,56.69
2019-05-01T00:18:24.408Z,57.07
2019-05-01T00:19:00.018Z,57.07
2019-05-01T00:19:35.774Z,56.73
2019-05-01T00:20:11.632Z,56.99
2019-05-01T00:20:47.214Z,56.99
2019-05-01T00:21:22.820Z,57.16
2019-05-01T00:21:58.262Z,57.78
2019-05-01T00:22:33.813Z,57.78
2019-05-01T00:23:09.287Z,57.37
2019-05-01T00:23:44.836Z,57.43
2019-05-01T00:24:20.629Z,57.50
2019-05-01T00:24:56.471Z,57.71
2019-05-01T00:25:31.936Z,57.46
2019-05-01T00:26:07.475Z,57.77
2019-05-01T00:26:43.707Z,57.77
2019-05-01T00:27:19.428Z,57.69
2019-05-01T00:27:55.294Z,57.74
2019-05-01T00:28:30.898Z,57.71
2019-05-01T00:29:06.488Z,57.96
2019-05-01T00:29:41.953Z,57.96
2019-05-01T00:30:29.878Z,57.71
2019-05-01T00:30:57.309Z,57.77
2019-05-01T00:31:32.853Z,57.86
2019-05-01T00:32:08.511Z,57.93
2019-05-01T00:32:44.118Z,58.00
2019-05-01T00:33:19.671Z,57.88
2019-05-01T00:33:55.153Z,57.86
2019-05-01T00:34:30.681Z,57.86
2019-05-01T00:35:06.137Z,57.84
2019-05-01T00:35:41.621Z,57.88
2019-05-01T00:36:17.081Z,57.89
2019-05-01T00:36:52.965Z,57.86
2019-05-01T00:37:28.804Z,57.89
2019-05-01T00:38:04.284Z,57.86
2019-05-01T00:38:40.125Z,57.89
2019-05-01T00:39:16.928Z,57.89
2019-05-01T00:39:52.533Z,57.98
2019-05-01T00:40:28.020Z,58.16
2019-05-01T00:41:03.521Z,58.16
2019-05-01T00:41:39.083Z,58.08
2019-05-01T00:42:14.966Z,58.16
2019-05-01T00:42:50.487Z,58.32
2019-05-01T00:43:26.004Z,58.46
2019-05-01T00:44:02.261Z,58.60
2019-05-01T00:44:37.846Z,58.68
2019-05-01T00:45:13.621Z,59.00
2019-05-01T00:45:49.379Z,59.00
2019-05-01T00:46:24.910Z,59.11
2019-05-01T00:47:00.529Z,59.10
2019-05-01T00:47:36.100Z,58.81
2019-05-01T00:48:11.821Z,59.24
2019-05-01T00:48:47.612Z,59.15
2019-05-01T00:49:23.264Z,59.21
2019-05-01T00:49:59.515Z,59.37
2019-05-01T00:50:35.726Z,59.40
2019-05-01T00:51:11.315Z,59.40
2019-05-01T00:51:46.805Z,59.32
2019-05-01T00:52:22.975Z,59.21
2019-05-01T00:52:58.946Z,59.31
2019-05-01T00:53:34.401Z,59.25
2019-05-01T00:54:09.904Z,59.38
2019-05-01T00:54:47.929Z,59.40
2019-05-01T00:55:41.192Z,59.37
2019-05-01T00:56:38.645Z,59.35
2019-05-01T00:57:27.431Z,59.13
2019-05-01T00:58:20.781Z,58.96
2019-05-01T00:59:21.251Z,58.96
2019-05-01T01:00:09.039Z,58.90
2019-05-01T01:01:00.597Z,59.03
2019-05-01T01:01:54.092Z,59.08
2019-05-01T01:02:36.482Z,59.21
2019-05-01T01:03:11.944Z,59.26
2019-05-01T01:03:47.511Z,59.26
2019-05-01T01:04:23.796Z,59.42
2019-05-01T01:04:59.804Z,59.38
2019-05-01T01:05:35.327Z,59.35
2019-05-01T01:06:11.183Z,59.38
2019-05-01T01:06:46.644Z,59.45
2019-05-01T01:07:22.237Z,59.42
2019-05-01T01:07:57.700Z,59.28
2019-05-01T01:08:33.472Z,59.43
2019-05-01T01:09:09.407Z,59.61
2019-05-01T01:09:45.424Z,59.76
2019-05-01T01:10:20.894Z,59.90
2019-05-01T01:10:56.454Z,59.95
2019-05-01T01:11:31.918Z,60.04
2019-05-01T01:12:07.389Z,60.13
2019-05-01T01:12:43.557Z,60.23
2019-05-01T01:13:19.105Z,60.08
2019-05-01T01:13:54.666Z,60.04
2019-05-01T01:14:30.608Z,60.48
2019-05-01T01:15:07.162Z,60.48
2019-05-01T01:15:42.615Z,60.30
2019-05-01T01:16:18.438Z,60.37
2019-05-01T01:16:54.016Z,60.52
2019-05-01T01:17:29.523Z,60.56
2019-05-01T01:18:05.317Z,60.57
2019-05-01T01:18:41.068Z,60.68
2019-05-01T01:19:16.543Z,60.70
2019-05-01T01:19:52.152Z,60.73
2019-05-01T01:20:27.664Z,60.69
2019-05-01T01:21:03.117Z,60.76
2019-05-01T01:21:38.939Z,60.73
2019-05-01T01:22:14.990Z,60.80
2019-05-01T01:22:50.707Z,60.78
2019-05-01T01:23:26.930Z,60.91
2019-05-01T01:24:04.686Z,60.88
2019-05-01T01:24:40.163Z,60.98
2019-05-01T01:25:16.263Z,60.99
2019-05-01T01:25:51.821Z,60.96
2019-05-01T01:26:27.308Z,60.99
2019-05-01T01:27:03.298Z,60.99
2019-05-01T01:27:39.344Z,60.94
2019-05-01T01:28:14.798Z,60.81
2019-05-01T01:28:50.384Z,60.81
2019-05-01T01:29:26.313Z,60.91
2019-05-01T01:30:02.188Z,61.06
2019-05-01T01:30:38.021Z,61.14
2019-05-01T01:31:13.562Z,61.25
2019-05-01T01:31:49.045Z,61.24
2019-05-01T01:32:24.801Z,61.24
2019-05-01T01:33:00.427Z,61.21
2019-05-01T01:33:36.153Z,61.11
2019-05-01T01:34:11.617Z,60.91
2019-05-01T01:34:47.073Z,61.03
2019-05-01T01:35:23.033Z,61.06
2019-05-01T01:35:58.879Z,60.92
2019-05-01T01:36:34.337Z,61.02
2019-05-01T01:37:09.864Z,61.11
2019-05-01T01:37:45.637Z,61.29
2019-05-01T01:38:21.582Z,61.29
2019-05-01T01:38:57.139Z,61.46
2019-05-01T01:39:33.050Z,61.47
2019-05-01T01:40:08.985Z,61.50
2019-05-01T01:40:44.933Z,61.62
2019-05-01T01:41:22.669Z,61.62
2019-05-01T01:41:58.258Z,61.54
2019-05-01T01:42:33.921Z,61.24
2019-05-01T01:43:27.208Z,61.08
2019-05-01T01:44:28.438Z,61.29
2019-05-01T01:45:41.375Z,61.43
2019-05-01T01:46:19.193Z,61.44
2019-05-01T01:46:55.729Z,61.59
2019-05-01T01:47:31.614Z,61.64
2019-05-01T01:48:12.449Z,61.78
2019-05-01T01:48:48.802Z,61.52
2019-05-01T01:49:24.339Z,61.52
2019-05-01T01:50:00.381Z,61.60
2019-05-01T01:50:35.975Z,61.63
2019-05-01T01:51:12.105Z,61.77
2019-05-01T01:51:47.558Z,61.91
2019-05-01T01:52:23.850Z,61.93
2019-05-01T01:52:59.477Z,61.97
2019-05-01T01:53:34.954Z,61.89
2019-05-01T01:54:10.853Z,61.91
2019-05-01T01:54:46.871Z,62.07
2019-05-01T01:55:22.976Z,61.88
2019-05-01T01:55:58.684Z,61.63
2019-05-01T01:56:34.624Z,61.63
2019-05-01T01:57:10.285Z,62.00
2019-05-01T01:57:46.251Z,61.88
2019-05-01T01:58:23.181Z,61.93
2019-05-01T01:58:59.942Z,61.79
2019-05-01T01:59:35.923Z,61.57
2019-05-01T02:00:13.072Z,61.67
2019-05-01T02:01:09.731Z,61.73
2019-05-01T02:02:06.290Z,61.79
2019-05-01T02:02:48.231Z,61.61
2019-05-01T02:03:24.637Z,61.84
2019-05-01T02:04:04.394Z,62.00
2019-05-01T02:04:57.904Z,62.06
2019-05-01T02:05:36.763Z,62.12
2019-05-01T02:06:12.754Z,61.89
2019-05-01T02:06:49.822Z,61.97
2019-05-01T02:07:25.645Z,61.97
2019-05-01T02:08:01.424Z,62.08
2019-05-01T02:08:36.874Z,62.23
2019-05-01T02:09:12.751Z,62.32
2019-05-01T02:09:48.243Z,62.38
2019-05-01T02:10:23.974Z,62.48
2019-05-01T02:10:59.861Z,62.50
2019-05-01T02:11:35.414Z,62.30
2019-05-01T02:12:11.156Z,62.27
2019-05-01T02:12:46.899Z,62.29
2019-05-01T02:13:22.387Z,62.20
2019-05-01T02:13:59.028Z,62.10
2019-05-01T02:14:34.515Z,62.29
2019-05-01T02:15:10.574Z,62.32
2019-05-01T02:15:46.349Z,62.24
2019-05-01T02:16:22.270Z,61.82
2019-05-01T02:16:57.760Z,62.02
2019-05-01T02:17:33.226Z,62.24
2019-05-01T02:18:08.786Z,62.44
2019-05-01T02:18:44.549Z,62.61
2019-05-01T02:19:20.982Z,62.62
2019-05-01T02:19:56.740Z,62.72
2019-05-01T02:20:32.787Z,62.56
2019-05-01T02:21:08.275Z,62.40
2019-05-01T02:21:43.726Z,62.47
2019-05-01T02:22:19.180Z,62.61
2019-05-01T02:22:55.034Z,62.61
2019-05-01T02:23:30.917Z,62.66
2019-05-01T02:24:06.350Z,62.71
2019-05-01T02:24:41.777Z,62.68
2019-05-01T02:25:17.601Z,62.76
2019-05-01T02:25:53.548Z,62.78
2019-05-01T02:26:31.336Z,62.65
2019-05-01T02:27:11.466Z,62.50
2019-05-01T02:28:06.635Z,62.45
2019-05-01T02:28:58.395Z,62.61
2019-05-01T02:29:39.899Z,62.73
2019-05-01T02:30:16.672Z,62.79
2019-05-01T02:31:08.102Z,62.60
2019-05-01T02:31:46.721Z,62.62
2019-05-01T02:32:24.571Z,62.80
2019-05-01T02:33:00.781Z,62.88
2019-05-01T02:33:37.368Z,62.33
2019-05-01T02:34:13.338Z,62.43
2019-05-01T02:34:49.815Z,62.63
2019-05-01T02:35:30.229Z,62.72
2019-05-01T02:36:04.975Z,62.75
2019-05-01T02:36:41.522Z,62.86
2019-05-01T02:37:18.369Z,62.94
2019-05-01T02:37:55.171Z,63.04
2019-05-01T02:38:32.920Z,63.16
2019-05-01T02:39:10.559Z,63.26
2019-05-01T02:39:49.258Z,63.33
2019-05-01T02:40:56.515Z,63.37
2019-05-01T02:41:35.731Z,63.37
2019-05-01T02:42:14.601Z,63.42
2019-05-01T02:42:51.789Z,63.35
2019-05-01T02:43:30.886Z,63.40
2019-05-01T02:44:10.789Z,63.46
2019-05-01T02:44:49.685Z,63.32
2019-05-01T02:45:26.830Z,63.45
2019-05-01T02:46:05.147Z,63.54
2019-05-01T02:46:42.939Z,63.21
2019-05-01T02:47:26.285Z,63.33
2019-05-01T02:48:02.465Z,63.46
2019-05-01T02:48:41.624Z,63.63
2019-05-01T02:49:25.278Z,63.73
2019-05-01T02:50:06.152Z,63.75
2019-05-01T02:50:43.020Z,63.72
2019-05-01T02:51:20.809Z,63.52
2019-05-01T02:51:56.678Z,63.27
2019-05-01T02:52:35.276Z,62.90
2019-05-01T02:53:11.095Z,62.99
2019-05-01T02:53:48.344Z,63.18
2019-05-01T02:54:24.158Z,63.25
2019-05-01T02:55:03.416Z,63.32
2019-05-01T02:55:44.969Z,63.44
2019-05-01T02:56:44.551Z,63.49
2019-05-01T02:57:24.723Z,63.55
2019-05-01T02:58:01.172Z,63.89
2019-05-01T02:58:37.168Z,64.02
2019-05-01T02:59:13.863Z,64.12
2019-05-01T02:59:52.742Z,64.01
2019-05-01T03:00:28.970Z,64.03
2019-05-01T03:01:04.492Z,63.92
2019-05-01T03:01:46.890Z,64.04
2019-05-01T03:02:19.131Z,64.14
2019-05-01T03:02:54.856Z,64.06
2019-05-01T03:03:30.366Z,64.29
2019-05-01T03:04:07.272Z,64.24
2019-05-01T03:04:44.050Z,64.35
2019-05-01T03:05:19.571Z,64.49
2019-05-01T03:05:55.133Z,64.58
2019-05-01T03:06:32.823Z,64.48
2019-05-01T03:07:10.181Z,64.26
2019-05-01T03:07:46.408Z,64.22
2019-05-01T03:08:22.477Z,64.43
2019-05-01T03:08:59.787Z,64.25
2019-05-01T03:09:36.340Z,64.25
2019-05-01T03:10:12.689Z,64.40
2019-05-01T03:10:48.137Z,64.57
2019-05-01T03:11:23.782Z,64.71
2019-05-01T03:12:00.465Z,64.73
2019-05-01T03:12:39.308Z,64.75
2019-05-01T03:13:15.273Z,64.75
2019-05-01T03:13:52.923Z,64.76
2019-05-01T03:14:31.392Z,64.82
2019-05-01T03:15:07.176Z,64.73
2019-05-01T03:15:42.988Z,64.69
2019-05-01T03:16:19.804Z,64.75
2019-05-01T03:16:59.215Z,64.78
2019-05-01T03:18:02.844Z,64.61
2019-05-01T03:18:43.014Z,64.69
2019-05-01T03:19:26.058Z,64.75
2019-05-01T03:20:20.185Z,64.69
2019-05-01T03:21:10.253Z,64.86
2019-05-01T03:22:04.528Z,64.61
2019-05-01T03:22:47.840Z,64.71
2019-05-01T03:23:46.463Z,64.66
2019-05-01T03:24:24.485Z,64.70
2019-05-01T03:25:01.236Z,64.69
2019-05-01T03:25:37.003Z,64.54
2019-05-01T03:26:12.674Z,64.17
2019-05-01T03:26:48.197Z,64.25
2019-05-01T03:27:24.011Z,64.51
2019-05-01T03:27:59.836Z,64.48
2019-05-01T03:28:35.542Z,64.66
2019-05-01T03:29:11.989Z,64.78
2019-05-01T03:29:47.560Z,64.90
2019-05-01T03:30:24.050Z,64.95
2019-05-01T03:30:59.780Z,65.09
2019-05-01T03:31:35.970Z,65.20
2019-05-01T03:32:18.637Z,65.17
2019-05-01T03:32:48.973Z,65.16
2019-05-01T03:33:24.879Z,65.00
2019-05-01T03:34:00.462Z,64.76
2019-05-01T03:34:36.124Z,64.73
2019-05-01T03:35:11.678Z,64.88
2019-05-01T03:35:47.131Z,64.95
2019-05-01T03:36:23.582Z,65.04
2019-05-01T03:37:00.197Z,65.14
2019-05-01T03:37:36.791Z,65.12
2019-05-01T03:38:13.586Z,65.17
2019-05-01T03:38:49.076Z,65.23
2019-05-01T03:39:25.328Z,65.36
2019-05-01T03:40:00.829Z,65.34
2019-05-01T03:40:37.453Z,65.32
2019-05-01T03:41:13.543Z,65.33
2019-05-01T03:41:49.735Z,65.31
2019-05-01T03:42:26.362Z,65.52
2019-05-01T03:43:02.382Z,65.56
2019-05-01T03:43:37.852Z,65.64
2019-05-01T03:44:13.517Z,65.68
2019-05-01T03:44:48.970Z,65.70
2019-05-01T03:45:25.395Z,65.75
2019-05-01T03:46:00.913Z,65.71
2019-05-01T03:46:37.200Z,65.66
2019-05-01T03:47:12.866Z,65.60
2019-05-01T03:47:49.015Z,65.32
2019-05-01T03:48:26.179Z,65.56
2019-05-01T03:49:02.069Z,65.81
2019-05-01T03:49:38.546Z,65.81
2019-05-01T03:50:14.302Z,65.64
2019-05-01T03:50:49.977Z,65.26
2019-05-01T03:51:25.930Z,65.65
2019-05-01T03:52:02.390Z,65.17
2019-05-01T03:52:38.619Z,65.25
2019-05-01T03:53:14.660Z,65.32
2019-05-01T03:53:50.276Z,65.22
2019-05-01T03:54:26.176Z,65.22
2019-05-01T03:55:02.004Z,65.49
2019-05-01T03:55:37.960Z,65.28
2019-05-01T03:56:14.360Z,65.28
2019-05-01T03:56:50.110Z,65.59
2019-05-01T03:57:26.027Z,65.59
2019-05-01T03:58:01.838Z,65.47
2019-05-01T03:58:37.800Z,65.53
2019-05-01T03:59:13.330Z,65.71
2019-05-01T03:59:49.065Z,65.71
2019-05-01T04:00:35.821Z,65.72
2019-05-01T04:01:29.296Z,65.75
2019-05-01T04:02:31.755Z,65.67
2019-05-01T04:03:08.551Z,65.74
2019-05-01T04:03:56.112Z,65.93
2019-05-01T04:04:32.340Z,66.01
2019-05-01T04:05:07.912Z,66.01
2019-05-01T04:05:44.502Z,65.50
2019-05-01T04:06:21.116Z,66.07
2019-05-01T04:06:56.973Z,66.07
2019-05-01T04:07:36.219Z,65.87
2019-05-01T04:08:10.299Z,65.85
2019-05-01T04:08:46.681Z,65.87
2019-05-01T04:09:23.102Z,65.96
2019-05-01T04:09:59.181Z,66.19
2019-05-01T04:10:34.637Z,66.19
2019-05-01T04:11:10.510Z,66.13
2019-05-01T04:11:46.869Z,66.13
2019-05-01T04:12:23.233Z,65.99
2019-05-01T04:12:59.085Z,65.98
2019-05-01T04:13:34.733Z,66.02
2019-05-01T04:14:11.006Z,66.06
2019-05-01T04:14:47.058Z,66.06
2019-05-01T04:15:22.859Z,66.06
2019-05-01T04:15:58.828Z,66.25
2019-05-01T04:16:34.951Z,65.63
2019-05-01T04:17:20.181Z,65.63
2019-05-01T04:18:32.177Z,65.73
2019-05-01T04:19:08.232Z,65.73
2019-05-01T04:19:44.528Z,65.78
2019-05-01T04:20:20.165Z,65.78
2019-05-01T04:20:56.532Z,65.89
2019-05-01T04:21:38.948Z,65.68
2019-05-01T04:22:15.012Z,65.68
2019-05-01T04:22:50.968Z,65.36
2019-05-01T04:23:26.703Z,65.36
2019-05-01T04:24:02.841Z,65.51
2019-05-01T04:24:38.296Z,65.13
2019-05-01T04:25:14.469Z,65.13
2019-05-01T04:25:50.232Z,65.04
2019-05-01T04:26:26.226Z,65.53
2019-05-01T04:27:02.877Z,65.22
2019-05-01T04:27:41.502Z,65.22
2019-05-01T04:28:33.381Z,65.34
2019-05-01T04:29:30.845Z,65.00
2019-05-01T04:30:17.454Z,65.15
2019-05-01T04:31:05.544Z,65.50
2019-05-01T04:31:45.703Z,65.50
2019-05-01T04:32:24.030Z,64.78
2019-05-01T04:33:01.876Z,64.78
2019-05-01T04:33:38.165Z,64.86
2019-05-01T04:34:31.731Z,64.86
2019-05-01T04:35:26.814Z,65.43
2019-05-01T04:36:08.032Z,65.43
2019-05-01T04:36:46.047Z,65.08
2019-05-01T04:37:22.160Z,65.07
2019-05-01T04:37:58.996Z,65.06
2019-05-01T04:38:35.482Z,64.86
2019-05-01T04:39:11.447Z,65.18
2019-05-01T04:39:47.455Z,65.20
2019-05-01T04:40:23.648Z,65.11
2019-05-01T04:40:59.167Z,65.01
2019-05-01T04:41:35.974Z,65.01
2019-05-01T04:42:12.424Z,65.21
2019-05-01T04:42:48.021Z,64.91
2019-05-01T04:43:23.592Z,65.21
2019-05-01T04:43:59.414Z,65.17
2019-05-01T04:44:34.904Z,65.20
2019-05-01T04:45:10.646Z,65.16
2019-05-01T04:45:46.651Z,65.15
2019-05-01T04:46:22.131Z,65.03
2019-05-01T04:46:58.812Z,65.06
2019-05-01T04:47:34.891Z,65.00
2019-05-01T04:48:10.594Z,64.82
2019-05-01T04:48:46.050Z,64.81
2019-05-01T04:49:21.536Z,64.89
2019-05-01T04:49:57.508Z,64.90
2019-05-01T04:50:32.988Z,64.84
2019-05-01T04:51:09.433Z,64.86
2019-05-01T04:51:46.791Z,64.78
2019-05-01T04:52:22.526Z,64.84
2019-05-01T04:52:59.152Z,64.84
2019-05-01T04:53:35.772Z,64.77
2019-05-01T04:54:11.220Z,64.75
2019-05-01T04:54:47.312Z,64.88
2019-05-01T04:55:23.905Z,64.88
2019-05-01T04:56:00.035Z,64.53
2019-05-01T04:56:35.479Z,64.32
2019-05-01T04:57:11.139Z,64.33
2019-05-01T04:57:47.086Z,64.31
2019-05-01T04:58:22.697Z,64.30
2019-05-01T04:58:58.587Z,64.31
2019-05-01T04:59:34.507Z,64.30
2019-05-01T05:00:10.099Z,64.24
2019-05-01T05:00:45.571Z,64.22
2019-05-01T05:01:21.318Z,64.15
2019-05-01T05:01:59.048Z,64.24
2019-05-01T05:02:43.799Z,64.23
2019-05-01T05:03:20.528Z,64.16
2019-05-01T05:03:56.267Z,64.12
2019-05-01T05:04:32.257Z,64.10
2019-05-01T05:05:08.225Z,64.09
2019-05-01T05:05:44.384Z,63.75
2019-05-01T05:06:21.162Z,63.68
2019-05-01T05:06:56.889Z,63.83
2019-05-01T05:07:32.843Z,63.89
2019-05-01T05:08:08.293Z,63.93
2019-05-01T05:08:44.053Z,64.00
2019-05-01T05:09:21.373Z,64.03
2019-05-01T05:09:57.228Z,64.14
2019-05-01T05:10:33.304Z,64.05
2019-05-01T05:11:14.052Z,64.05
2019-05-01T05:11:55.218Z,64.17
2019-05-01T05:12:50.098Z,63.85
2019-05-01T05:13:27.909Z,63.85
2019-05-01T05:14:14.681Z,63.96
2019-05-01T05:14:53.916Z,64.04
2019-05-01T05:15:50.184Z,64.12
2019-05-01T05:16:51.892Z,64.08
2019-05-01T05:17:27.896Z,64.15
2019-05-01T05:18:04.136Z,64.15
2019-05-01T05:18:39.942Z,64.11
2019-05-01T05:19:16.174Z,64.06
2019-05-01T05:19:51.805Z,64.07
2019-05-01T05:20:28.239Z,64.03
2019-05-01T05:21:03.823Z,64.01
2019-05-01T05:21:39.257Z,63.97
2019-05-01T05:22:16.637Z,63.94
2019-05-01T05:22:52.805Z,63.90
2019-05-01T05:23:28.405Z,63.70
2019-05-01T05:24:04.053Z,63.63
2019-05-01T05:24:39.783Z,63.81
2019-05-01T05:25:15.573Z,63.81
2019-05-01T05:25:51.831Z,63.63
2019-05-01T05:26:27.823Z,63.57
2019-05-01T05:27:03.760Z,63.61
2019-05-01T05:27:40.831Z,63.58
2019-05-01T05:28:16.864Z,63.50
2019-05-01T05:28:53.202Z,63.42
2019-05-01T05:29:29.348Z,63.39
2019-05-01T05:30:05.336Z,63.47
2019-05-01T05:30:44.245Z,63.37
2019-05-01T05:31:23.104Z,63.36
2019-05-01T05:32:01.297Z,63.36
2019-05-01T05:32:39.845Z,63.27
2019-05-01T05:33:18.985Z,63.12
2019-05-01T05:33:56.210Z,63.18
2019-05-01T05:34:32.710Z,63.05
2019-05-01T05:35:09.565Z,62.94
2019-05-01T05:35:46.986Z,63.38
2019-05-01T05:36:25.857Z,63.38
2019-05-01T05:37:09.331Z,63.23
2019-05-01T05:38:05.496Z,63.07
2019-05-01T05:38:54.055Z,62.77
2019-05-01T05:39:35.752Z,62.66
2019-05-01T05:40:11.611Z,62.66
2019-05-01T05:40:47.572Z,62.69
2019-05-01T05:41:24.056Z,62.68
2019-05-01T05:42:01.406Z,62.33
2019-05-01T05:42:37.919Z,62.35
2019-05-01T05:43:13.515Z,62.46
2019-05-01T05:43:50.216Z,62.47
2019-05-01T05:44:26.665Z,62.49
2019-05-01T05:45:03.198Z,62.48
2019-05-01T05:45:38.922Z,62.42
2019-05-01T05:46:14.728Z,62.27
2019-05-01T05:46:50.553Z,62.34
2019-05-01T05:47:26.928Z,62.33
2019-05-01T05:48:02.623Z,62.15
2019-05-01T05:48:38.186Z,61.93
2019-05-01T05:49:14.209Z,61.99
2019-05-01T05:49:49.633Z,61.99
2019-05-01T05:50:27.236Z,62.00
2019-05-01T05:51:21.849Z,61.74
2019-05-01T05:52:11.686Z,61.83
2019-05-01T05:52:54.036Z,61.90
2019-05-01T05:53:33.818Z,61.75
2019-05-01T05:54:28.572Z,61.62
2019-05-01T05:55:25.303Z,61.55
2019-05-01T05:56:05.335Z,61.33
2019-05-01T05:56:49.186Z,61.52
2019-05-01T05:57:33.442Z,61.35
2019-05-01T05:58:21.024Z,61.13
2019-05-01T05:59:01.387Z,61.03
2019-05-01T05:59:41.795Z,61.08
2019-05-01T06:00:42.368Z,60.95
2019-05-01T06:01:33.799Z,60.86
2019-05-01T06:02:30.673Z,60.35
2019-05-01T06:03:31.357Z,59.92
2019-05-01T06:04:26.646Z,59.92
2019-05-01T06:05:30.781Z,60.11
2019-05-01T06:06:24.477Z,60.28
2019-05-01T06:07:08.451Z,60.36
2019-05-01T06:08:05.222Z,60.44
2019-05-01T06:08:44.035Z,60.63
2019-05-01T06:09:24.652Z,60.39
2019-05-01T06:10:10.653Z,60.24
2019-05-01T06:11:10.362Z,60.18
2019-05-01T06:11:59.739Z,60.04
2019-05-01T06:12:46.777Z,59.89
2019-05-01T06:13:42.216Z,60.19
2019-05-01T06:14:45.344Z,60.43
2019-05-01T06:15:43.752Z,60.48
2019-05-01T06:16:31.488Z,60.38
2019-05-01T06:17:13.471Z,60.33
2019-05-01T06:17:59.173Z,60.39
2019-05-01T06:18:41.216Z,60.54
2019-05-01T06:19:51.094Z,60.51
2019-05-01T06:20:45.571Z,60.44
2019-05-01T06:21:34.771Z,60.21
2019-05-01T06:22:28.904Z,60.13
2019-05-01T06:23:24.002Z,60.08
2019-05-01T06:24:08.459Z,60.05
2019-05-01T06:24:46.404Z,60.27
2019-05-01T06:25:27.462Z,60.19
2019-05-01T06:26:22.739Z,59.96
2019-05-01T06:26:58.797Z,59.87
2019-05-01T06:27:35.706Z,59.96
2019-05-01T06:28:11.903Z,59.94
2019-05-01T06:28:47.355Z,59.12
2019-05-01T06:29:23.596Z,59.08
2019-05-01T06:30:00.851Z,59.14
2019-05-01T06:30:36.926Z,59.21
2019-05-01T06:31:23.216Z,58.72
2019-05-01T06:31:58.840Z,58.31
2019-05-01T06:32:33.494Z,57.63
2019-05-01T06:33:11.287Z,57.50
2019-05-01T06:33:48.571Z,57.56
2019-05-01T06:34:28.626Z,56.88
2019-05-01T06:35:04.479Z,57.06
2019-05-01T06:35:40.461Z,57.24
2019-05-01T06:36:17.030Z,57.24
2019-05-01T06:36:52.519Z,57.29
2019-05-01T06:37:55.995Z,57.31
2019-05-01T06:38:31.620Z,57.26
2019-05-01T06:39:11.994Z,57.22
2019-05-01T06:39:48.141Z,57.33
2019-05-01T06:40:38.105Z,57.05
2019-05-01T06:41:14.931Z,57.04
2019-05-01T06:41:51.726Z,56.88
2019-05-01T06:42:27.718Z,57.09
2019-05-01T06:43:03.645Z,57.12
2019-05-01T06:44:07.387Z,57.12
2019-05-01T06:45:01.775Z,56.49
2019-05-01T06:45:40.486Z,56.31
2019-05-01T06:46:31.451Z,56.59
2019-05-01T06:47:18.738Z,56.86
2019-05-01T06:48:02.093Z,57.14
2019-05-01T06:48:39.015Z,57.38
2019-05-01T06:49:31.018Z,57.29
2019-05-01T06:50:24.747Z,57.26
2019-05-01T06:51:19.508Z,56.84
2019-05-01T06:51:56.626Z,56.89
2019-05-01T06:52:34.454Z,56.95
2019-05-01T06:53:10.234Z,56.95
2019-05-01T06:53:46.508Z,56.97
2019-05-01T06:54:24.070Z,56.97
2019-05-01T06:55:00.678Z,56.86
2019-05-01T06:55:37.078Z,56.71
2019-05-01T06:56:12.862Z,56.62
2019-05-01T06:56:49.922Z,56.60
2019-05-01T06:57:27.276Z,56.97
2019-05-01T06:58:03.346Z,57.20
2019-05-01T06:58:39.251Z,57.06
2019-05-01T06:59:17.215Z,57.00
2019-05-01T06:59:52.922Z,56.61
2019-05-01T07:00:28.733Z,56.82
2019-05-01T07:01:04.228Z,56.79
2019-05-01T07:01:40.554Z,56.68
2019-05-01T07:02:18.188Z,56.51
2019-05-01T07:02:56.156Z,56.43
2019-05-01T07:03:31.702Z,56.36
2019-05-01T07:04:07.852Z,56.13
2019-05-01T07:04:44.534Z,55.79
2019-05-01T07:05:23.266Z,55.96
2019-05-01T07:05:58.916Z,55.91
2019-05-01T07:06:35.083Z,55.94
2019-05-01T07:07:24.692Z,55.92
2019-05-01T07:07:53.267Z,55.90
2019-05-01T07:08:29.464Z,55.67
2019-05-01T07:09:07.020Z,55.63
2019-05-01T07:09:49.361Z,55.61
2019-05-01T07:10:30.816Z,55.38
2019-05-01T07:11:00.272Z,55.29
2019-05-01T07:11:36.438Z,55.32
2019-05-01T07:12:18.394Z,55.12
2019-05-01T07:12:54.509Z,55.03
2019-05-01T07:13:35.540Z,54.37
2019-05-01T07:14:11.153Z,54.36
2019-05-01T07:14:50.838Z,54.54
2019-05-01T07:15:26.721Z,54.34
2019-05-01T07:16:03.275Z,54.24
2019-05-01T07:16:39.363Z,54.31
2019-05-01T07:17:16.372Z,54.38
2019-05-01T07:17:52.263Z,54.33
2019-05-01T07:18:29.227Z,54.41
2019-05-01T07:19:06.914Z,54.33
2019-05-01T07:20:02.664Z,54.39
2019-05-01T07:20:53.190Z,54.33
2019-05-01T07:21:32.655Z,54.21
2019-05-01T07:22:07.470Z,54.22
2019-05-01T07:22:44.202Z,54.36
2019-05-01T07:23:20.556Z,54.37
2019-05-01T07:23:56.905Z,54.66
2019-05-01T07:24:32.567Z,54.68
2019-05-01T07:25:09.432Z,54.77
2019-05-01T07:25:46.036Z,54.88
2019-05-01T07:26:22.890Z,55.07
2019-05-01T07:26:59.845Z,55.06
2019-05-01T07:27:35.940Z,54.36
2019-05-01T07:28:11.998Z,54.22
2019-05-01T07:28:49.113Z,54.29
2019-05-01T07:29:26.327Z,54.22
2019-05-01T07:30:11.424Z,54.18
2019-05-01T07:31:05.264Z,54.28
2019-05-01T07:31:41.074Z,54.41
2019-05-01T07:32:17.535Z,54.38
2019-05-01T07:32:54.400Z,54.84
2019-05-01T07:33:31.633Z,55.18
2019-05-01T07:34:16.376Z,55.16
2019-05-01T07:34:48.770Z,55.05
2019-05-01T07:35:23.119Z,55.12
2019-05-01T07:35:59.646Z,55.00
2019-05-01T07:36:35.769Z,54.90
2019-05-01T07:37:12.134Z,54.74
2019-05-01T07:37:48.040Z,54.54
2019-05-01T07:38:24.536Z,54.73
2019-05-01T07:39:00.362Z,55.01
2019-05-01T07:39:37.235Z,55.37
2019-05-01T07:40:13.712Z,55.27
2019-05-01T07:40:50.303Z,55.41
2019-05-01T07:41:27.109Z,55.44
2019-05-01T07:42:21.541Z,55.13
2019-05-01T07:43:02.691Z,54.78
2019-05-01T07:44:01.016Z,54.58
2019-05-01T07:44:42.905Z,54.38
2019-05-01T07:45:39.033Z,54.09
2019-05-01T07:46:24.626Z,53.71
2019-05-01T07:47:10.665Z,53.95
2019-05-01T07:47:46.154Z,53.95
2019-05-01T07:48:36.127Z,54.10
2019-05-01T07:49:13.133Z,54.05
2019-05-01T07:49:54.633Z,53.99
2019-05-01T07:50:32.646Z,53.96
2019-05-01T07:51:09.236Z,54.06
2019-05-01T07:51:52.906Z,54.14
2019-05-01T07:52:29.401Z,53.86
2019-05-01T07:53:05.658Z,53.47
2019-05-01T07:53:42.718Z,53.08
2019-05-01T07:54:20.332Z,52.74
2019-05-01T07:54:57.452Z,52.47
2019-05-01T07:55:37.017Z,52.50
2019-05-01T07:56:13.451Z,52.26
2019-05-01T07:56:50.019Z,52.77
2019-05-01T07:57:26.479Z,52.77
2019-05-01T07:58:02.802Z,53.01
2019-05-01T07:58:39.731Z,53.02
2019-05-01T07:59:17.038Z,53.10
2019-05-01T07:59:53.581Z,52.96
2019-05-01T08:00:41.461Z,52.76
2019-05-01T08:01:40.097Z,52.80
2019-05-01T08:02:16.840Z,52.73
2019-05-01T08:02:53.217Z,52.84
2019-05-01T08:03:29.068Z,52.81
2019-05-01T08:04:04.582Z,52.89
2019-05-01T08:04:40.677Z,53.06
2019-05-01T08:05:17.065Z,53.24
2019-05-01T08:05:52.618Z,53.16
2019-05-01T08:06:28.839Z,52.61
2019-05-01T08:07:05.321Z,52.15
2019-05-01T08:07:40.785Z,52.10
2019-05-01T08:08:17.527Z,51.93
2019-05-01T08:08:53.436Z,51.63
2019-05-01T08:09:30.857Z,51.53
2019-05-01T08:10:07.899Z,51.50
2019-05-01T08:10:44.070Z,51.45
2019-05-01T08:11:19.938Z,51.47
2019-05-01T08:11:55.585Z,51.58
2019-05-01T08:12:31.462Z,51.81
2019-05-01T08:13:06.935Z,51.80
2019-05-01T08:13:42.998Z,51.58
2019-05-01T08:14:18.720Z,51.53
2019-05-01T08:14:54.523Z,51.70
2019-05-01T08:15:32.493Z,51.90
2019-05-01T08:16:08.777Z,51.93
2019-05-01T08:16:44.385Z,51.98
2019-05-01T08:17:22.123Z,51.92
2019-05-01T08:18:11.802Z,52.08
2019-05-01T08:18:59.000Z,52.43
2019-05-01T08:20:01.238Z,52.22
2019-05-01T08:20:41.060Z,52.01
2019-05-01T08:21:34.673Z,52.21
2019-05-01T08:22:13.837Z,52.10